sensor_id;sensor_type;location;lat;lon;timestamp;temperature;humidity
10314;DHT22;5202;49.138;10.090;2022-08-24T00:02:02;16.70;84.30
10314;DHT22;5202;49.138;10.090;2022-08-24T00:04:32;16.70;84.20
10314;DHT22;5202;49.138;10.090;2022-08-24T00:07:03;16.80;82.60
10314;DHT22;5202;49.138;10.090;2022-08-24T00:09:47;17.00;81.30
10314;DHT22;5202;49.138;10.090;2022-08-24T00:12:16;17.00;82.90
10314;DHT22;5202;49.138;10.090;2022-08-24T00:14:45;17.00;83.40
10314;DHT22;5202;49.138;10.090;2022-08-24T00:17:15;16.90;83.70
10314;DHT22;5202;49.138;10.090;2022-08-24T00:19:43;16.90;84.00
10314;DHT22;5202;49.138;10.090;2022-08-24T00:22:13;16.80;85.40
10314;DHT22;5202;49.138;10.090;2022-08-24T00:24:41;16.80;85.40
10314;DHT22;5202;49.138;10.090;2022-08-24T00:27:10;16.80;86.50
10314;DHT22;5202;49.138;10.090;2022-08-24T00:29:38;16.80;86.60
10314;DHT22;5202;49.138;10.090;2022-08-24T00:32:07;16.60;86.80
10314;DHT22;5202;49.138;10.090;2022-08-24T00:34:35;16.50;87.30
10314;DHT22;5202;49.138;10.090;2022-08-24T00:37:03;16.40;87.70
10314;DHT22;5202;49.138;10.090;2022-08-24T00:39:33;16.30;88.00
10314;DHT22;5202;49.138;10.090;2022-08-24T00:42:02;16.20;88.40
10314;DHT22;5202;49.138;10.090;2022-08-24T00:44:30;16.10;88.80
10314;DHT22;5202;49.138;10.090;2022-08-24T00:47:00;16.00;89.00
10314;DHT22;5202;49.138;10.090;2022-08-24T00:49:34;16.00;89.30
10314;DHT22;5202;49.138;10.090;2022-08-24T00:52:08;16.00;89.50
10314;DHT22;5202;49.138;10.090;2022-08-24T00:54:52;15.90;89.80
10314;DHT22;5202;49.138;10.090;2022-08-24T00:57:27;15.90;89.80
10314;DHT22;5202;49.138;10.090;2022-08-24T01:00:03;15.90;90.10
10314;DHT22;5202;49.138;10.090;2022-08-24T01:02:36;15.90;90.20
10314;DHT22;5202;49.138;10.090;2022-08-24T01:05:09;15.80;90.20
10314;DHT22;5202;49.138;10.090;2022-08-24T01:07:39;15.70;90.50
10314;DHT22;5202;49.138;10.090;2022-08-24T01:10:12;15.70;90.70
10314;DHT22;5202;49.138;10.090;2022-08-24T01:12:44;15.60;90.90
10314;DHT22;5202;49.138;10.090;2022-08-24T01:15:28;15.60;91.10
10314;DHT22;5202;49.138;10.090;2022-08-24T01:17:57;15.60;91.20
10314;DHT22;5202;49.138;10.090;2022-08-24T01:20:45;15.60;91.40
10314;DHT22;5202;49.138;10.090;2022-08-24T01:23:36;15.60;91.40
10314;DHT22;5202;49.138;10.090;2022-08-24T01:26:09;15.60;91.40
10314;DHT22;5202;49.138;10.090;2022-08-24T01:28:43;15.70;91.50
10314;DHT22;5202;49.138;10.090;2022-08-24T01:31:14;15.70;91.50
10314;DHT22;5202;49.138;10.090;2022-08-24T01:33:43;15.70;91.50
10314;DHT22;5202;49.138;10.090;2022-08-24T01:36:17;15.60;91.30
10314;DHT22;5202;49.138;10.090;2022-08-24T01:38:58;15.50;91.50
10314;DHT22;5202;49.138;10.090;2022-08-24T01:41:28;15.40;91.70
10314;DHT22;5202;49.138;10.090;2022-08-24T01:43:58;15.40;92.00
10314;DHT22;5202;49.138;10.090;2022-08-24T01:46:27;15.20;92.20
10314;DHT22;5202;49.138;10.090;2022-08-24T01:48:56;15.10;92.50
10314;DHT22;5202;49.138;10.090;2022-08-24T01:51:28;15.00;93.00
10314;DHT22;5202;49.138;10.090;2022-08-24T01:54:00;15.00;93.40
10314;DHT22;5202;49.138;10.090;2022-08-24T01:56:30;14.90;93.50
10314;DHT22;5202;49.138;10.090;2022-08-24T01:59:00;14.90;93.80
10314;DHT22;5202;49.138;10.090;2022-08-24T02:01:31;14.90;94.20
10314;DHT22;5202;49.138;10.090;2022-08-24T02:04:03;14.80;94.30
10314;DHT22;5202;49.138;10.090;2022-08-24T02:06:35;14.80;94.40
10314;DHT22;5202;49.138;10.090;2022-08-24T02:09:08;14.80;94.20
10314;DHT22;5202;49.138;10.090;2022-08-24T02:11:38;14.80;94.10
10314;DHT22;5202;49.138;10.090;2022-08-24T02:14:10;14.80;94.30
10314;DHT22;5202;49.138;10.090;2022-08-24T02:16:41;14.70;94.30
10314;DHT22;5202;49.138;10.090;2022-08-24T02:19:09;14.70;94.20
10314;DHT22;5202;49.138;10.090;2022-08-24T02:21:38;14.60;94.50
10314;DHT22;5202;49.138;10.090;2022-08-24T02:24:08;14.50;95.40
10314;DHT22;5202;49.138;10.090;2022-08-24T02:26:37;14.60;95.40
10314;DHT22;5202;49.138;10.090;2022-08-24T02:29:06;14.60;95.40
10314;DHT22;5202;49.138;10.090;2022-08-24T02:31:34;14.70;95.50
10314;DHT22;5202;49.138;10.090;2022-08-24T02:34:03;14.80;95.30
10314;DHT22;5202;49.138;10.090;2022-08-24T02:36:32;14.80;95.10
10314;DHT22;5202;49.138;10.090;2022-08-24T02:39:00;14.80;94.80
10314;DHT22;5202;49.138;10.090;2022-08-24T02:41:33;14.70;94.80
10314;DHT22;5202;49.138;10.090;2022-08-24T02:44:04;14.60;94.90
10314;DHT22;5202;49.138;10.090;2022-08-24T02:46:33;14.60;94.90
10314;DHT22;5202;49.138;10.090;2022-08-24T02:49:04;14.50;94.60
10314;DHT22;5202;49.138;10.090;2022-08-24T02:51:42;14.40;94.60
10314;DHT22;5202;49.138;10.090;2022-08-24T02:54:18;14.30;94.70
10314;DHT22;5202;49.138;10.090;2022-08-24T02:56:50;14.20;95.00
10314;DHT22;5202;49.138;10.090;2022-08-24T02:59:20;14.10;95.20
10314;DHT22;5202;49.138;10.090;2022-08-24T03:01:49;14.00;95.30
10314;DHT22;5202;49.138;10.090;2022-08-24T03:04:19;14.00;95.60
10314;DHT22;5202;49.138;10.090;2022-08-24T03:06:48;13.90;95.80
10314;DHT22;5202;49.138;10.090;2022-08-24T03:09:16;13.90;96.30
10314;DHT22;5202;49.138;10.090;2022-08-24T03:11:45;13.90;96.40
10314;DHT22;5202;49.138;10.090;2022-08-24T03:14:16;13.90;96.00
10314;DHT22;5202;49.138;10.090;2022-08-24T03:16:45;13.90;96.30
10314;DHT22;5202;49.138;10.090;2022-08-24T03:19:13;13.90;96.30
10314;DHT22;5202;49.138;10.090;2022-08-24T03:21:43;13.90;96.20
10314;DHT22;5202;49.138;10.090;2022-08-24T03:24:12;13.90;96.40
10314;DHT22;5202;49.138;10.090;2022-08-24T03:26:40;13.90;96.40
10314;DHT22;5202;49.138;10.090;2022-08-24T03:29:10;13.90;96.40
10314;DHT22;5202;49.138;10.090;2022-08-24T03:31:43;13.90;96.30
10314;DHT22;5202;49.138;10.090;2022-08-24T03:34:13;14.00;96.40
10314;DHT22;5202;49.138;10.090;2022-08-24T03:36:42;13.90;96.40
10314;DHT22;5202;49.138;10.090;2022-08-24T03:39:15;14.00;96.50
10314;DHT22;5202;49.138;10.090;2022-08-24T03:41:45;13.90;96.40
10314;DHT22;5202;49.138;10.090;2022-08-24T03:44:13;13.90;96.20
10314;DHT22;5202;49.138;10.090;2022-08-24T03:46:48;13.80;96.40
10314;DHT22;5202;49.138;10.090;2022-08-24T03:49:17;13.70;96.00
10314;DHT22;5202;49.138;10.090;2022-08-24T03:51:46;13.70;96.10
10314;DHT22;5202;49.138;10.090;2022-08-24T03:54:19;13.60;96.10
10314;DHT22;5202;49.138;10.090;2022-08-24T03:56:47;13.50;96.20
10314;DHT22;5202;49.138;10.090;2022-08-24T03:59:15;13.40;96.50
10314;DHT22;5202;49.138;10.090;2022-08-24T04:01:50;13.40;96.70
10314;DHT22;5202;49.138;10.090;2022-08-24T04:04:18;13.30;96.70
10314;DHT22;5202;49.138;10.090;2022-08-24T04:06:47;13.30;96.70
10314;DHT22;5202;49.138;10.090;2022-08-24T04:09:16;13.20;96.80
10314;DHT22;5202;49.138;10.090;2022-08-24T04:11:46;13.20;96.90
10314;DHT22;5202;49.138;10.090;2022-08-24T04:14:20;13.00;97.00
10314;DHT22;5202;49.138;10.090;2022-08-24T04:17:10;13.10;97.20
10314;DHT22;5202;49.138;10.090;2022-08-24T04:19:42;13.10;97.20
10314;DHT22;5202;49.138;10.090;2022-08-24T04:22:28;13.00;97.40
10314;DHT22;5202;49.138;10.090;2022-08-24T04:25:00;13.00;97.70
10314;DHT22;5202;49.138;10.090;2022-08-24T04:27:35;12.90;97.60
10314;DHT22;5202;49.138;10.090;2022-08-24T04:30:04;13.00;97.70
10314;DHT22;5202;49.138;10.090;2022-08-24T04:32:48;13.00;98.00
10314;DHT22;5202;49.138;10.090;2022-08-24T04:35:17;13.00;98.10
10314;DHT22;5202;49.138;10.090;2022-08-24T04:37:45;13.10;98.30
10314;DHT22;5202;49.138;10.090;2022-08-24T04:40:14;13.10;98.20
10314;DHT22;5202;49.138;10.090;2022-08-24T04:42:46;13.20;98.10
10314;DHT22;5202;49.138;10.090;2022-08-24T04:45:15;13.20;98.00
10314;DHT22;5202;49.138;10.090;2022-08-24T04:47:43;13.20;98.00
10314;DHT22;5202;49.138;10.090;2022-08-24T04:50:13;13.20;97.90
10314;DHT22;5202;49.138;10.090;2022-08-24T04:52:49;13.20;97.50
10314;DHT22;5202;49.138;10.090;2022-08-24T04:55:18;13.20;97.70
10314;DHT22;5202;49.138;10.090;2022-08-24T04:57:46;13.30;98.10
10314;DHT22;5202;49.138;10.090;2022-08-24T05:00:15;13.40;97.90
10314;DHT22;5202;49.138;10.090;2022-08-24T05:02:43;13.40;98.20
10314;DHT22;5202;49.138;10.090;2022-08-24T05:05:14;13.40;97.90
10314;DHT22;5202;49.138;10.090;2022-08-24T05:07:42;13.50;98.00
10314;DHT22;5202;49.138;10.090;2022-08-24T05:10:12;13.50;98.10
10314;DHT22;5202;49.138;10.090;2022-08-24T05:12:40;13.50;98.00
10314;DHT22;5202;49.138;10.090;2022-08-24T05:15:10;13.50;97.90
10314;DHT22;5202;49.138;10.090;2022-08-24T05:17:42;13.50;98.00
10314;DHT22;5202;49.138;10.090;2022-08-24T05:20:19;13.60;98.30
10314;DHT22;5202;49.138;10.090;2022-08-24T05:22:50;13.70;98.10
10314;DHT22;5202;49.138;10.090;2022-08-24T05:25:22;13.70;98.20
10314;DHT22;5202;49.138;10.090;2022-08-24T05:27:50;13.80;98.40
10314;DHT22;5202;49.138;10.090;2022-08-24T05:30:19;13.90;98.50
10314;DHT22;5202;49.138;10.090;2022-08-24T05:32:47;13.90;98.80
10314;DHT22;5202;49.138;10.090;2022-08-24T05:35:16;14.00;98.90
10314;DHT22;5202;49.138;10.090;2022-08-24T05:37:45;14.10;99.00
10314;DHT22;5202;49.138;10.090;2022-08-24T05:40:17;14.20;99.20
10314;DHT22;5202;49.138;10.090;2022-08-24T05:42:49;14.30;99.50
10314;DHT22;5202;49.138;10.090;2022-08-24T05:45:17;14.30;99.60
10314;DHT22;5202;49.138;10.090;2022-08-24T05:47:47;14.50;99.90
10314;DHT22;5202;49.138;10.090;2022-08-24T05:50:35;14.60;99.30
10314;DHT22;5202;49.138;10.090;2022-08-24T05:53:06;14.80;99.10
10314;DHT22;5202;49.138;10.090;2022-08-24T05:55:37;14.90;99.40
10314;DHT22;5202;49.138;10.090;2022-08-24T05:58:06;15.10;99.10
10314;DHT22;5202;49.138;10.090;2022-08-24T06:00:38;15.30;99.30
10314;DHT22;5202;49.138;10.090;2022-08-24T06:03:07;15.60;99.70
10314;DHT22;5202;49.138;10.090;2022-08-24T06:06:01;15.80;99.90
10314;DHT22;5202;49.138;10.090;2022-08-24T06:08:33;16.00;99.90
10314;DHT22;5202;49.138;10.090;2022-08-24T06:11:08;16.20;99.90
10314;DHT22;5202;49.138;10.090;2022-08-24T06:13:37;16.50;99.90
10314;DHT22;5202;49.138;10.090;2022-08-24T06:16:07;16.70;99.90
10314;DHT22;5202;49.138;10.090;2022-08-24T06:18:49;16.90;99.60
10314;DHT22;5202;49.138;10.090;2022-08-24T06:21:24;17.10;99.50
10314;DHT22;5202;49.138;10.090;2022-08-24T06:23:58;17.30;99.60
10314;DHT22;5202;49.138;10.090;2022-08-24T06:26:27;17.50;99.30
10314;DHT22;5202;49.138;10.090;2022-08-24T06:29:16;17.60;99.50
10314;DHT22;5202;49.138;10.090;2022-08-24T06:31:49;17.80;99.10
10314;DHT22;5202;49.138;10.090;2022-08-24T06:34:23;18.00;98.80
10314;DHT22;5202;49.138;10.090;2022-08-24T06:36:52;18.10;98.20
10314;DHT22;5202;49.138;10.090;2022-08-24T06:39:24;18.20;97.70
10314;DHT22;5202;49.138;10.090;2022-08-24T06:41:54;18.40;97.40
10314;DHT22;5202;49.138;10.090;2022-08-24T06:44:30;18.50;97.40
10314;DHT22;5202;49.138;10.090;2022-08-24T06:47:06;18.70;97.20
10314;DHT22;5202;49.138;10.090;2022-08-24T06:49:35;18.80;96.90
10314;DHT22;5202;49.138;10.090;2022-08-24T06:52:04;18.90;96.70
10314;DHT22;5202;49.138;10.090;2022-08-24T06:54:34;19.10;96.60
10314;DHT22;5202;49.138;10.090;2022-08-24T06:57:03;19.30;96.40
10314;DHT22;5202;49.138;10.090;2022-08-24T06:59:32;19.40;96.00
10314;DHT22;5202;49.138;10.090;2022-08-24T07:02:00;19.60;96.00
10314;DHT22;5202;49.138;10.090;2022-08-24T07:04:29;19.70;95.80
10314;DHT22;5202;49.138;10.090;2022-08-24T07:07:16;19.90;96.00
10314;DHT22;5202;49.138;10.090;2022-08-24T07:09:46;20.10;95.40
10314;DHT22;5202;49.138;10.090;2022-08-24T07:12:14;20.20;95.10
10314;DHT22;5202;49.138;10.090;2022-08-24T07:14:43;20.40;94.70
10314;DHT22;5202;49.138;10.090;2022-08-24T07:17:11;20.50;93.80
10314;DHT22;5202;49.138;10.090;2022-08-24T07:19:39;20.60;93.30
10314;DHT22;5202;49.138;10.090;2022-08-24T07:22:08;20.80;92.90
10314;DHT22;5202;49.138;10.090;2022-08-24T07:24:36;20.90;92.40
10314;DHT22;5202;49.138;10.090;2022-08-24T07:27:06;21.00;92.40
10314;DHT22;5202;49.138;10.090;2022-08-24T07:29:34;21.20;92.40
10314;DHT22;5202;49.138;10.090;2022-08-24T07:32:18;21.30;92.10
10314;DHT22;5202;49.138;10.090;2022-08-24T07:34:48;21.50;92.00
10314;DHT22;5202;49.138;10.090;2022-08-24T07:37:17;21.60;91.80
10314;DHT22;5202;49.138;10.090;2022-08-24T07:39:47;21.80;91.50
10314;DHT22;5202;49.138;10.090;2022-08-24T07:42:18;21.90;91.60
10314;DHT22;5202;49.138;10.090;2022-08-24T07:44:57;22.00;91.00
10314;DHT22;5202;49.138;10.090;2022-08-24T07:47:26;22.20;90.70
10314;DHT22;5202;49.138;10.090;2022-08-24T07:50:19;22.30;91.00
10314;DHT22;5202;49.138;10.090;2022-08-24T07:52:48;22.40;90.80
10314;DHT22;5202;49.138;10.090;2022-08-24T07:55:18;22.60;90.20
10314;DHT22;5202;49.138;10.090;2022-08-24T07:57:50;22.70;89.60
10314;DHT22;5202;49.138;10.090;2022-08-24T08:00:19;22.70;89.30
10314;DHT22;5202;49.138;10.090;2022-08-24T08:02:54;22.80;89.00
10314;DHT22;5202;49.138;10.090;2022-08-24T08:05:23;22.90;88.00
10314;DHT22;5202;49.138;10.090;2022-08-24T08:07:54;23.00;87.60
10314;DHT22;5202;49.138;10.090;2022-08-24T08:10:22;23.20;87.30
10314;DHT22;5202;49.138;10.090;2022-08-24T08:12:53;23.20;87.10
10314;DHT22;5202;49.138;10.090;2022-08-24T08:15:22;23.40;86.80
10314;DHT22;5202;49.138;10.090;2022-08-24T08:18:00;23.50;87.50
10314;DHT22;5202;49.138;10.090;2022-08-24T08:20:29;23.70;86.30
10314;DHT22;5202;49.138;10.090;2022-08-24T08:22:59;23.80;85.20
10314;DHT22;5202;49.138;10.090;2022-08-24T08:25:56;23.80;85.00
10314;DHT22;5202;49.138;10.090;2022-08-24T08:28:46;23.90;84.90
10314;DHT22;5202;49.138;10.090;2022-08-24T08:31:14;24.00;84.80
10314;DHT22;5202;49.138;10.090;2022-08-24T08:33:42;24.10;83.80
10314;DHT22;5202;49.138;10.090;2022-08-24T08:36:12;24.10;84.70
10314;DHT22;5202;49.138;10.090;2022-08-24T08:38:49;24.20;83.60
10314;DHT22;5202;49.138;10.090;2022-08-24T08:44:42;24.40;82.70
10314;DHT22;5202;49.138;10.090;2022-08-24T08:47:35;24.40;82.60
10314;DHT22;5202;49.138;10.090;2022-08-24T08:50:17;24.40;82.40
10314;DHT22;5202;49.138;10.090;2022-08-24T08:53:18;24.50;82.40
10314;DHT22;5202;49.138;10.090;2022-08-24T08:56:08;24.60;81.20
10314;DHT22;5202;49.138;10.090;2022-08-24T08:58:52;24.70;80.90
10314;DHT22;5202;49.138;10.090;2022-08-24T09:01:46;24.80;80.50
10314;DHT22;5202;49.138;10.090;2022-08-24T09:04:50;24.80;79.40
10314;DHT22;5202;49.138;10.090;2022-08-24T09:07:32;25.00;78.40
10314;DHT22;5202;49.138;10.090;2022-08-24T09:10:20;25.00;79.60
10314;DHT22;5202;49.138;10.090;2022-08-24T09:13:06;25.30;79.20
10314;DHT22;5202;49.138;10.090;2022-08-24T09:16:06;25.40;76.10
10314;DHT22;5202;49.138;10.090;2022-08-24T09:18:53;25.40;75.30
10314;DHT22;5202;49.138;10.090;2022-08-24T09:21:40;25.50;75.60
10314;DHT22;5202;49.138;10.090;2022-08-24T09:24:28;25.50;77.00
10314;DHT22;5202;49.138;10.090;2022-08-24T09:27:25;25.60;75.70
10314;DHT22;5202;49.138;10.090;2022-08-24T09:30:09;25.60;75.80
10314;DHT22;5202;49.138;10.090;2022-08-24T09:33:05;25.70;75.20
10314;DHT22;5202;49.138;10.090;2022-08-24T09:38:46;25.80;74.80
10314;DHT22;5202;49.138;10.090;2022-08-24T09:45:12;26.00;73.90
10314;DHT22;5202;49.138;10.090;2022-08-24T09:48:38;26.00;74.50
10314;DHT22;5202;49.138;10.090;2022-08-24T09:58:12;26.20;73.10
10314;DHT22;5202;49.138;10.090;2022-08-24T10:00:47;26.50;73.20
10314;DHT22;5202;49.138;10.090;2022-08-24T10:03:25;26.60;72.60
10314;DHT22;5202;49.138;10.090;2022-08-24T10:06:15;26.70;72.80
10314;DHT22;5202;49.138;10.090;2022-08-24T10:09:00;26.70;73.00
10314;DHT22;5202;49.138;10.090;2022-08-24T10:11:40;26.90;72.70
10314;DHT22;5202;49.138;10.090;2022-08-24T10:14:23;26.90;71.50
10314;DHT22;5202;49.138;10.090;2022-08-24T10:17:10;26.90;71.10
10314;DHT22;5202;49.138;10.090;2022-08-24T10:19:51;26.90;70.90
10314;DHT22;5202;49.138;10.090;2022-08-24T10:25:54;27.20;71.60
10314;DHT22;5202;49.138;10.090;2022-08-24T10:28:42;27.40;70.40
10314;DHT22;5202;49.138;10.090;2022-08-24T10:31:29;27.60;69.00
10314;DHT22;5202;49.138;10.090;2022-08-24T10:34:10;27.70;69.30
10314;DHT22;5202;49.138;10.090;2022-08-24T10:36:57;27.70;68.20
10314;DHT22;5202;49.138;10.090;2022-08-24T10:40:03;27.70;68.30
10314;DHT22;5202;49.138;10.090;2022-08-24T10:43:00;27.80;67.80
10314;DHT22;5202;49.138;10.090;2022-08-24T10:46:33;27.90;67.60
10314;DHT22;5202;49.138;10.090;2022-08-24T10:53:07;28.10;68.00
10314;DHT22;5202;49.138;10.090;2022-08-24T10:55:41;28.00;66.60
10314;DHT22;5202;49.138;10.090;2022-08-24T10:58:31;28.10;66.90
10314;DHT22;5202;49.138;10.090;2022-08-24T11:01:15;28.20;67.00
10314;DHT22;5202;49.138;10.090;2022-08-24T11:03:51;28.40;66.80
10314;DHT22;5202;49.138;10.090;2022-08-24T11:06:24;28.50;66.00
10314;DHT22;5202;49.138;10.090;2022-08-24T11:08:57;28.50;65.80
10314;DHT22;5202;49.138;10.090;2022-08-24T11:11:30;28.70;65.80
10314;DHT22;5202;49.138;10.090;2022-08-24T11:14:02;28.80;64.70
10314;DHT22;5202;49.138;10.090;2022-08-24T11:16:38;28.90;64.20
10314;DHT22;5202;49.138;10.090;2022-08-24T11:19:12;29.10;64.10
10314;DHT22;5202;49.138;10.090;2022-08-24T11:21:48;29.20;63.70
10314;DHT22;5202;49.138;10.090;2022-08-24T11:24:36;29.30;62.70
10314;DHT22;5202;49.138;10.090;2022-08-24T11:27:18;29.40;63.60
10314;DHT22;5202;49.138;10.090;2022-08-24T11:29:57;29.10;62.00
10314;DHT22;5202;49.138;10.090;2022-08-24T11:32:31;29.00;63.40
10314;DHT22;5202;49.138;10.090;2022-08-24T11:35:14;29.20;63.80
10314;DHT22;5202;49.138;10.090;2022-08-24T11:37:46;29.40;63.40
10314;DHT22;5202;49.138;10.090;2022-08-24T11:40:17;29.60;63.80
10314;DHT22;5202;49.138;10.090;2022-08-24T11:43:13;29.80;62.80
10314;DHT22;5202;49.138;10.090;2022-08-24T11:45:57;29.80;61.40
10314;DHT22;5202;49.138;10.090;2022-08-24T11:48:38;30.00;61.50
10314;DHT22;5202;49.138;10.090;2022-08-24T11:51:18;30.00;61.60
10314;DHT22;5202;49.138;10.090;2022-08-24T11:54:00;30.10;61.00
10314;DHT22;5202;49.138;10.090;2022-08-24T11:56:33;30.20;61.00
10314;DHT22;5202;49.138;10.090;2022-08-24T11:59:14;30.30;59.60
10314;DHT22;5202;49.138;10.090;2022-08-24T12:01:50;30.40;58.60
10314;DHT22;5202;49.138;10.090;2022-08-24T12:04:35;30.60;59.10
10314;DHT22;5202;49.138;10.090;2022-08-24T12:07:17;30.90;58.50
10314;DHT22;5202;49.138;10.090;2022-08-24T12:10:00;31.00;57.30
10314;DHT22;5202;49.138;10.090;2022-08-24T12:12:41;31.00;57.00
10314;DHT22;5202;49.138;10.090;2022-08-24T12:15:16;31.00;56.70
10314;DHT22;5202;49.138;10.090;2022-08-24T12:17:51;31.20;57.30
10314;DHT22;5202;49.138;10.090;2022-08-24T12:20:28;31.20;56.20
10314;DHT22;5202;49.138;10.090;2022-08-24T12:23:04;31.20;56.60
10314;DHT22;5202;49.138;10.090;2022-08-24T12:25:35;31.00;56.60
10314;DHT22;5202;49.138;10.090;2022-08-24T12:28:24;30.90;55.70
10314;DHT22;5202;49.138;10.090;2022-08-24T12:31:01;30.60;55.90
10314;DHT22;5202;49.138;10.090;2022-08-24T12:33:35;30.80;56.40
10314;DHT22;5202;49.138;10.090;2022-08-24T12:36:11;31.10;56.30
10314;DHT22;5202;49.138;10.090;2022-08-24T12:39:00;31.10;55.90
10314;DHT22;5202;49.138;10.090;2022-08-24T12:41:34;31.30;56.10
10314;DHT22;5202;49.138;10.090;2022-08-24T12:44:06;31.60;55.20
10314;DHT22;5202;49.138;10.090;2022-08-24T12:46:39;31.80;55.90
10314;DHT22;5202;49.138;10.090;2022-08-24T12:49:14;32.10;55.80
10314;DHT22;5202;49.138;10.090;2022-08-24T12:52:07;32.30;55.00
10314;DHT22;5202;49.138;10.090;2022-08-24T12:54:54;32.40;53.70
10314;DHT22;5202;49.138;10.090;2022-08-24T12:57:41;32.20;53.10
10314;DHT22;5202;49.138;10.090;2022-08-24T13:00:24;32.20;54.00
10314;DHT22;5202;49.138;10.090;2022-08-24T13:02:56;32.30;54.10
10314;DHT22;5202;49.138;10.090;2022-08-24T13:05:38;32.50;54.20
10314;DHT22;5202;49.138;10.090;2022-08-24T13:08:11;32.60;52.90
10314;DHT22;5202;49.138;10.090;2022-08-24T13:10:50;32.80;52.50
10314;DHT22;5202;49.138;10.090;2022-08-24T13:16:07;32.70;52.50
10314;DHT22;5202;49.138;10.090;2022-08-24T13:18:48;32.80;52.70
10314;DHT22;5202;49.138;10.090;2022-08-24T13:21:43;32.90;51.60
10314;DHT22;5202;49.138;10.090;2022-08-24T13:24:57;33.00;51.80
10314;DHT22;5202;49.138;10.090;2022-08-24T13:31:02;32.70;52.50
10314;DHT22;5202;49.138;10.090;2022-08-24T13:33:42;32.80;52.70
10314;DHT22;5202;49.138;10.090;2022-08-24T13:36:51;33.10;51.70
10314;DHT22;5202;49.138;10.090;2022-08-24T13:43:08;32.30;52.10
10314;DHT22;5202;49.138;10.090;2022-08-24T13:45:43;32.10;53.70
10314;DHT22;5202;49.138;10.090;2022-08-24T13:48:25;32.20;53.10
10314;DHT22;5202;49.138;10.090;2022-08-24T13:51:14;32.30;52.70
10314;DHT22;5202;49.138;10.090;2022-08-24T13:53:57;32.60;52.10
10314;DHT22;5202;49.138;10.090;2022-08-24T13:56:46;32.80;51.40
10314;DHT22;5202;49.138;10.090;2022-08-24T13:59:47;32.80;52.10
10314;DHT22;5202;49.138;10.090;2022-08-24T14:02:29;33.00;51.20
10314;DHT22;5202;49.138;10.090;2022-08-24T14:05:12;33.00;51.50
10314;DHT22;5202;49.138;10.090;2022-08-24T14:07:53;33.10;51.40
10314;DHT22;5202;49.138;10.090;2022-08-24T14:10:40;32.80;50.60
10314;DHT22;5202;49.138;10.090;2022-08-24T14:13:28;32.30;51.00
10314;DHT22;5202;49.138;10.090;2022-08-24T14:16:10;31.90;51.00
10314;DHT22;5202;49.138;10.090;2022-08-24T14:19:16;31.20;51.90
10314;DHT22;5202;49.138;10.090;2022-08-24T14:21:51;31.00;53.20
10314;DHT22;5202;49.138;10.090;2022-08-24T14:24:30;31.20;53.60
10314;DHT22;5202;49.138;10.090;2022-08-24T14:27:06;31.40;53.10
10314;DHT22;5202;49.138;10.090;2022-08-24T14:29:40;31.60;53.30
10314;DHT22;5202;49.138;10.090;2022-08-24T14:32:47;31.80;52.90
10314;DHT22;5202;49.138;10.090;2022-08-24T14:35:37;31.80;52.90
10314;DHT22;5202;49.138;10.090;2022-08-24T14:38:25;31.50;52.60
10314;DHT22;5202;49.138;10.090;2022-08-24T14:41:13;31.40;52.60
10314;DHT22;5202;49.138;10.090;2022-08-24T14:44:07;31.30;52.80
10314;DHT22;5202;49.138;10.090;2022-08-24T14:46:48;31.00;53.40
10314;DHT22;5202;49.138;10.090;2022-08-24T14:49:30;30.90;54.00
10314;DHT22;5202;49.138;10.090;2022-08-24T14:52:10;31.00;54.70
10314;DHT22;5202;49.138;10.090;2022-08-24T14:54:58;30.90;54.60
10314;DHT22;5202;49.138;10.090;2022-08-24T14:57:42;30.70;55.00
10314;DHT22;5202;49.138;10.090;2022-08-24T15:00:16;30.50;55.20
10314;DHT22;5202;49.138;10.090;2022-08-24T15:03:26;30.30;55.30
10314;DHT22;5202;49.138;10.090;2022-08-24T15:06:15;30.20;55.40
10314;DHT22;5202;49.138;10.090;2022-08-24T15:09:05;30.30;55.60
10314;DHT22;5202;49.138;10.090;2022-08-24T15:11:38;30.50;55.10
10314;DHT22;5202;49.138;10.090;2022-08-24T15:14:19;30.50;55.50
10314;DHT22;5202;49.138;10.090;2022-08-24T15:17:07;30.40;56.10
10314;DHT22;5202;49.138;10.090;2022-08-24T15:19:45;30.20;55.80
10314;DHT22;5202;49.138;10.090;2022-08-24T15:22:24;30.10;56.30
10314;DHT22;5202;49.138;10.090;2022-08-24T15:25:01;30.00;56.10
10314;DHT22;5202;49.138;10.090;2022-08-24T15:27:39;29.70;56.70
10314;DHT22;5202;49.138;10.090;2022-08-24T15:30:20;29.50;57.00
10314;DHT22;5202;49.138;10.090;2022-08-24T15:32:52;29.30;57.30
10314;DHT22;5202;49.138;10.090;2022-08-24T15:35:38;29.20;57.80
10314;DHT22;5202;49.138;10.090;2022-08-24T15:38:21;29.10;58.60
10314;DHT22;5202;49.138;10.090;2022-08-24T15:41:01;29.00;58.30
10314;DHT22;5202;49.138;10.090;2022-08-24T15:43:35;29.00;58.70
10314;DHT22;5202;49.138;10.090;2022-08-24T15:46:09;29.00;59.20
10314;DHT22;5202;49.138;10.090;2022-08-24T15:48:40;29.30;58.70
10314;DHT22;5202;49.138;10.090;2022-08-24T15:51:30;29.60;58.60
10314;DHT22;5202;49.138;10.090;2022-08-24T15:54:14;29.90;58.10
10314;DHT22;5202;49.138;10.090;2022-08-24T15:56:57;30.10;57.80
10314;DHT22;5202;49.138;10.090;2022-08-24T15:59:30;30.40;57.10
10314;DHT22;5202;49.138;10.090;2022-08-24T16:02:25;30.50;56.40
10314;DHT22;5202;49.138;10.090;2022-08-24T16:05:09;30.50;56.30
10314;DHT22;5202;49.138;10.090;2022-08-24T16:08:05;30.00;57.00
10314;DHT22;5202;49.138;10.090;2022-08-24T16:10:40;29.60;57.90
10314;DHT22;5202;49.138;10.090;2022-08-24T16:13:20;29.40;58.30
10314;DHT22;5202;49.138;10.090;2022-08-24T16:15:57;29.20;58.80
10314;DHT22;5202;49.138;10.090;2022-08-24T16:18:43;28.80;59.00
10314;DHT22;5202;49.138;10.090;2022-08-24T16:21:17;28.40;59.80
10314;DHT22;5202;49.138;10.090;2022-08-24T16:23:56;28.30;60.50
10314;DHT22;5202;49.138;10.090;2022-08-24T16:26:30;28.20;60.30
10314;DHT22;5202;49.138;10.090;2022-08-24T16:29:04;28.10;59.60
10314;DHT22;5202;49.138;10.090;2022-08-24T16:31:44;28.00;59.40
10314;DHT22;5202;49.138;10.090;2022-08-24T16:34:26;27.90;58.90
10314;DHT22;5202;49.138;10.090;2022-08-24T16:36:56;27.90;58.90
10314;DHT22;5202;49.138;10.090;2022-08-24T16:39:25;27.90;58.90
10314;DHT22;5202;49.138;10.090;2022-08-24T16:41:57;27.90;58.90
10314;DHT22;5202;49.138;10.090;2022-08-24T16:44:33;28.00;59.40
10314;DHT22;5202;49.138;10.090;2022-08-24T16:47:05;27.90;59.50
10314;DHT22;5202;49.138;10.090;2022-08-24T16:49:35;27.90;59.70
10314;DHT22;5202;49.138;10.090;2022-08-24T16:52:05;27.90;60.00
10314;DHT22;5202;49.138;10.090;2022-08-24T16:54:33;27.80;60.10
10314;DHT22;5202;49.138;10.090;2022-08-24T16:57:10;27.80;60.40
10314;DHT22;5202;49.138;10.090;2022-08-24T16:59:42;27.80;60.80
10314;DHT22;5202;49.138;10.090;2022-08-24T17:02:13;27.80;60.50
10314;DHT22;5202;49.138;10.090;2022-08-24T17:04:42;27.80;60.30